createdAt,value
2022-11-29T00:00:44.685Z,66.57
2022-11-29T00:03:11.429Z,67.45
2022-11-29T00:05:38.133Z,67.61
2022-11-29T00:08:04.774Z,66.83
2022-11-29T00:10:31.377Z,66.77
2022-11-29T00:12:58.037Z,65.81
2022-11-29T00:15:24.648Z,65.37
2022-11-29T00:17:51.236Z,65.92
2022-11-29T00:20:17.897Z,66.96
2022-11-29T00:22:44.628Z,66.81
2022-11-29T00:25:11.227Z,66.16
2022-11-29T00:27:37.882Z,65.61
2022-11-29T00:30:04.554Z,65.95
2022-11-29T00:32:31.164Z,66.71
2022-11-29T00:34:59.640Z,66.31
2022-11-29T00:37:26.603Z,67.29
2022-11-29T00:39:53.279Z,66.64
2022-11-29T00:42:19.920Z,67.45
2022-11-29T00:44:46.568Z,67.64
2022-11-29T00:47:13.251Z,67.48
2022-11-29T00:49:39.929Z,66.44
2022-11-29T00:52:06.573Z,65.52
2022-11-29T00:54:33.185Z,65.49
2022-11-29T00:56:59.803Z,65.00
2022-11-29T00:59:26.388Z,64.98
2022-11-29T01:01:53.044Z,64.59
2022-11-29T01:04:19.686Z,63.74
2022-11-29T01:06:46.309Z,63.71
2022-11-29T01:09:12.939Z,64.18
2022-11-29T01:11:39.608Z,64.35
2022-11-29T01:14:06.220Z,63.92
2022-11-29T01:16:32.917Z,64.23
2022-11-29T01:18:59.634Z,64.50
2022-11-29T01:21:26.246Z,64.57
2022-11-29T01:23:52.897Z,64.32
2022-11-29T01:26:19.524Z,64.83
2022-11-29T01:28:46.158Z,66.01
2022-11-29T01:31:12.818Z,65.83
2022-11-29T01:33:39.413Z,65.73
2022-11-29T01:36:06.073Z,65.30
2022-11-29T01:38:32.659Z,65.99
2022-11-29T01:40:59.233Z,66.72
2022-11-29T01:43:25.887Z,66.59
2022-11-29T01:45:52.528Z,66.37
2022-11-29T01:48:19.173Z,66.37
2022-11-29T01:50:45.818Z,65.40
2022-11-29T01:53:12.464Z,65.24
2022-11-29T01:55:39.149Z,64.67
2022-11-29T01:58:06.064Z,65.75
2022-11-29T02:00:32.692Z,66.82
2022-11-29T02:02:59.306Z,68.40
2022-11-29T02:05:25.936Z,68.42
2022-11-29T02:07:52.561Z,67.88
2022-11-29T02:10:19.276Z,67.08
2022-11-29T02:12:45.873Z,67.35
2022-11-29T02:15:12.504Z,67.34
2022-11-29T02:17:39.159Z,67.66
2022-11-29T02:20:06.391Z,67.03
2022-11-29T02:22:32.997Z,66.72
2022-11-29T02:24:59.666Z,66.79
2022-11-29T02:27:26.280Z,66.93
2022-11-29T02:29:52.935Z,66.13
2022-11-29T02:32:19.622Z,66.94
2022-11-29T02:34:46.434Z,66.76
2022-11-29T02:37:13.333Z,66.69
2022-11-29T02:39:39.988Z,66.54
2022-11-29T02:42:06.645Z,67.69
2022-11-29T02:44:33.270Z,68.57
2022-11-29T02:46:59.856Z,68.70
2022-11-29T02:49:26.480Z,69.43
2022-11-29T02:51:53.101Z,69.87
2022-11-29T02:54:19.769Z,69.83
2022-11-29T02:56:46.424Z,69.54
2022-11-29T02:59:13.041Z,69.14
2022-11-29T03:01:39.743Z,69.30
2022-11-29T03:04:06.356Z,68.32
2022-11-29T03:06:33.073Z,68.46
2022-11-29T03:08:59.740Z,68.10
2022-11-29T03:11:26.392Z,67.27
2022-11-29T03:13:53.012Z,67.83
2022-11-29T03:16:19.601Z,68.35
2022-11-29T03:18:46.215Z,67.76
2022-11-29T03:21:12.941Z,68.81
2022-11-29T03:23:39.603Z,68.01
2022-11-29T03:26:06.260Z,67.86
2022-11-29T03:28:32.869Z,68.56
2022-11-29T03:30:59.532Z,67.63
2022-11-29T03:33:26.164Z,67.58
2022-11-29T03:35:52.778Z,67.62
2022-11-29T03:38:19.380Z,67.78
2022-11-29T03:40:45.963Z,68.61
2022-11-29T03:43:12.572Z,68.38
2022-11-29T03:45:39.196Z,69.10
2022-11-29T03:48:05.810Z,68.47
2022-11-29T03:50:32.442Z,68.25
2022-11-29T03:52:59.117Z,68.22
2022-11-29T03:55:25.779Z,68.94
2022-11-29T03:57:52.427Z,69.31
2022-11-29T04:00:19.092Z,69.46
2022-11-29T04:02:45.723Z,70.01
2022-11-29T04:05:12.430Z,69.50
2022-11-29T04:07:39.111Z,69.10
2022-11-29T04:10:05.805Z,68.95
2022-11-29T04:12:32.417Z,68.79
2022-11-29T04:14:59.054Z,68.05
2022-11-29T04:17:25.737Z,68.13
2022-11-29T04:19:52.381Z,69.80
2022-11-29T04:22:18.996Z,69.80
2022-11-29T04:24:45.914Z,68.68
2022-11-29T04:27:12.698Z,68.61
2022-11-29T04:29:39.308Z,69.10
2022-11-29T04:32:05.969Z,70.28
2022-11-29T04:34:32.577Z,68.80
2022-11-29T04:36:59.233Z,69.11
2022-11-29T04:39:25.877Z,69.03
2022-11-29T04:41:52.508Z,68.26
2022-11-29T04:44:19.146Z,67.91
2022-11-29T04:46:45.849Z,67.59
2022-11-29T04:49:12.517Z,67.47
2022-11-29T04:51:39.133Z,67.80
2022-11-29T04:54:05.821Z,66.85
2022-11-29T04:56:32.462Z,67.44
2022-11-29T04:58:59.111Z,67.32
2022-11-29T05:01:25.747Z,67.76
2022-11-29T05:03:56.903Z,66.72
2022-11-29T05:06:23.904Z,67.09
2022-11-29T05:08:50.533Z,66.81
2022-11-29T05:11:20.831Z,66.69
2022-11-29T05:13:50.115Z,66.66
2022-11-29T05:16:16.831Z,66.90
2022-11-29T05:18:43.524Z,66.56
2022-11-29T05:21:10.150Z,67.64
2022-11-29T05:23:36.730Z,67.92
2022-11-29T05:26:03.406Z,67.54
2022-11-29T05:28:30.106Z,66.46
2022-11-29T05:30:56.761Z,65.97
2022-11-29T05:33:23.418Z,65.72
2022-11-29T05:35:50.077Z,66.01
2022-11-29T05:38:16.721Z,66.01
2022-11-29T05:40:43.408Z,67.99
2022-11-29T05:43:10.058Z,67.82
2022-11-29T05:45:37.055Z,68.04
2022-11-29T05:48:04.071Z,68.40
2022-11-29T05:50:30.722Z,67.83
2022-11-29T05:52:57.345Z,67.59
2022-11-29T05:55:23.949Z,67.23
2022-11-29T05:57:50.544Z,66.78
2022-11-29T06:00:17.213Z,66.34
2022-11-29T06:02:43.885Z,65.87
2022-11-29T06:05:10.576Z,66.50
2022-11-29T06:07:37.238Z,65.84
2022-11-29T06:10:03.960Z,65.91
2022-11-29T06:12:30.710Z,66.62
2022-11-29T06:14:57.337Z,66.45
2022-11-29T06:17:24.150Z,66.37
2022-11-29T06:22:34.948Z,65.37
2022-11-29T06:25:01.582Z,65.09
2022-11-29T06:27:28.266Z,65.58
2022-11-29T06:29:54.877Z,65.43
2022-11-29T06:32:21.514Z,65.04
2022-11-29T06:34:48.467Z,65.04
2022-11-29T06:37:15.250Z,64.97
2022-11-29T06:39:41.889Z,64.77
2022-11-29T06:42:08.538Z,64.27
2022-11-29T06:44:35.193Z,63.90
2022-11-29T06:47:01.840Z,64.09
2022-11-29T06:49:28.537Z,63.83
2022-11-29T06:51:55.125Z,63.86
2022-11-29T06:54:21.722Z,63.69
2022-11-29T06:56:48.346Z,63.59
2022-11-29T06:59:14.985Z,63.22
2022-11-29T07:01:41.751Z,63.16
2022-11-29T07:04:08.434Z,63.94
2022-11-29T07:06:35.079Z,64.82
2022-11-29T07:09:01.726Z,64.66
2022-11-29T07:11:28.374Z,64.40
2022-11-29T07:13:55.026Z,63.86
2022-11-29T07:16:21.748Z,64.07
2022-11-29T07:18:48.457Z,63.90
2022-11-29T07:21:15.048Z,63.83
2022-11-29T07:23:41.697Z,63.74
2022-11-29T07:26:08.337Z,64.01
2022-11-29T07:28:35.589Z,63.64
2022-11-29T07:31:02.789Z,63.41
2022-11-29T07:33:30.113Z,63.77
2022-11-29T07:35:57.567Z,63.91
2022-11-29T07:38:24.457Z,63.61
2022-11-29T07:40:51.706Z,64.01
2022-11-29T07:43:18.971Z,64.02
2022-11-29T07:45:45.946Z,63.98
2022-11-29T07:48:12.620Z,63.64
2022-11-29T07:50:39.823Z,63.50
2022-11-29T07:53:06.628Z,63.22
2022-11-29T07:55:33.703Z,63.04
2022-11-29T07:58:00.398Z,63.11
2022-11-29T08:00:27.184Z,62.83
2022-11-29T08:02:53.987Z,62.63
2022-11-29T08:05:20.711Z,62.66
2022-11-29T08:07:48.111Z,62.46
2022-11-29T08:10:14.869Z,62.40
2022-11-29T08:12:41.924Z,62.02
2022-11-29T08:15:09.081Z,62.13
2022-11-29T08:17:35.995Z,62.05
2022-11-29T08:20:04.479Z,62.19
2022-11-29T08:22:31.484Z,61.10
2022-11-29T08:24:58.758Z,62.13
2022-11-29T08:27:25.584Z,62.24
2022-11-29T08:29:52.486Z,62.33
2022-11-29T08:32:19.924Z,62.37
2022-11-29T08:34:46.939Z,61.99
2022-11-29T08:37:13.733Z,62.52
2022-11-29T08:39:40.441Z,62.54
2022-11-29T08:42:07.049Z,61.73
2022-11-29T08:44:33.710Z,61.96
2022-11-29T08:47:00.313Z,61.04
2022-11-29T08:49:26.953Z,61.34
2022-11-29T08:51:53.580Z,60.97
2022-11-29T08:54:20.220Z,60.48
2022-11-29T08:59:33.484Z,62.05
2022-11-29T09:02:00.216Z,61.99
2022-11-29T09:04:26.916Z,62.85
2022-11-29T09:06:53.557Z,63.28
2022-11-29T09:09:20.205Z,63.14
2022-11-29T09:11:49.439Z,63.31
2022-11-29T09:14:16.353Z,63.23
2022-11-29T09:16:42.996Z,62.80
2022-11-29T09:19:09.691Z,63.27
2022-11-29T09:21:36.317Z,62.75
2022-11-29T09:24:02.960Z,63.01
2022-11-29T09:26:29.545Z,63.39
2022-11-29T09:28:56.223Z,61.97
2022-11-29T09:31:22.937Z,62.78
2022-11-29T09:33:49.606Z,62.22
2022-11-29T09:36:16.237Z,61.54
2022-11-29T09:38:42.930Z,61.31
2022-11-29T09:41:09.536Z,60.52
2022-11-29T09:43:36.176Z,60.00
2022-11-29T09:46:02.813Z,60.30
2022-11-29T09:48:29.452Z,60.31
2022-11-29T09:50:56.052Z,60.62
2022-11-29T09:53:22.655Z,60.61
2022-11-29T09:55:49.311Z,60.04
2022-11-29T09:58:15.958Z,60.29
2022-11-29T10:00:42.563Z,61.26
2022-11-29T10:03:09.176Z,60.99
2022-11-29T10:05:35.823Z,60.27
2022-11-29T10:08:10.945Z,59.55
2022-11-29T10:10:37.590Z,60.07
2022-11-29T10:13:04.228Z,60.19
2022-11-29T10:15:30.897Z,60.10
2022-11-29T10:17:57.555Z,58.98
2022-11-29T10:20:24.181Z,59.44
2022-11-29T10:22:50.824Z,58.89
2022-11-29T10:25:17.464Z,59.08
2022-11-29T10:27:44.158Z,59.39
2022-11-29T10:30:10.855Z,59.93
2022-11-29T10:32:37.548Z,59.04
2022-11-29T10:35:04.194Z,60.47
2022-11-29T10:37:30.812Z,60.62
2022-11-29T10:39:57.405Z,60.26
2022-11-29T10:42:24.075Z,60.16
2022-11-29T10:44:50.697Z,59.07
2022-11-29T10:47:17.307Z,58.68
2022-11-29T10:49:43.966Z,58.51
2022-11-29T10:52:10.600Z,59.24
2022-11-29T10:54:37.232Z,59.62
2022-11-29T10:57:03.874Z,60.65
2022-11-29T10:59:30.488Z,59.69
2022-11-29T11:01:57.074Z,59.45
2022-11-29T11:04:23.731Z,59.28
2022-11-29T11:06:50.334Z,59.13
2022-11-29T11:09:16.961Z,58.75
2022-11-29T11:11:43.576Z,59.28
2022-11-29T11:14:10.237Z,60.33
2022-11-29T11:16:37.785Z,60.26
2022-11-29T11:19:04.606Z,59.67
2022-11-29T11:21:31.299Z,59.43
2022-11-29T11:23:57.925Z,59.52
2022-11-29T11:26:24.530Z,59.53
2022-11-29T11:28:51.137Z,58.80
2022-11-29T11:31:17.812Z,58.11
2022-11-29T11:33:44.533Z,58.38
2022-11-29T11:36:11.142Z,58.17
2022-11-29T11:38:37.736Z,58.01
2022-11-29T11:41:04.403Z,58.94
2022-11-29T11:43:30.996Z,59.18
2022-11-29T11:45:57.674Z,58.65
2022-11-29T11:48:24.383Z,59.40
2022-11-29T11:50:51.020Z,59.81
2022-11-29T11:53:17.640Z,60.00
2022-11-29T11:55:44.285Z,60.21
2022-11-29T11:58:11.083Z,60.72
2022-11-29T12:01:02.437Z,61.06
2022-11-29T12:03:24.403Z,60.87
2022-11-29T12:05:51.086Z,60.03
2022-11-29T12:08:17.823Z,60.67
2022-11-29T12:10:44.547Z,60.65
2022-11-29T12:13:11.173Z,59.90
2022-11-29T12:15:37.956Z,59.35
2022-11-29T12:18:04.678Z,59.12
2022-11-29T12:20:31.324Z,60.45
2022-11-29T12:22:57.996Z,59.96
2022-11-29T12:25:24.621Z,59.70
2022-11-29T12:27:51.268Z,59.96
2022-11-29T12:30:17.937Z,60.01
2022-11-29T12:32:44.533Z,59.50
2022-11-29T12:35:14.779Z,59.25
2022-11-29T12:37:44.058Z,59.04
2022-11-29T12:40:10.762Z,58.93
2022-11-29T12:42:37.514Z,59.23
2022-11-29T12:45:04.211Z,58.79
2022-11-29T12:47:38.208Z,58.58
2022-11-29T12:50:05.038Z,58.85
2022-11-29T12:52:31.726Z,58.33
2022-11-29T12:54:58.347Z,58.87
2022-11-29T12:57:25.013Z,59.63
2022-11-29T12:59:51.659Z,60.47
2022-11-29T13:02:18.361Z,59.75
2022-11-29T13:04:45.378Z,60.00
2022-11-29T13:07:12.358Z,59.71
2022-11-29T13:09:38.973Z,60.09
2022-11-29T13:12:05.955Z,60.26
2022-11-29T13:14:47.942Z,60.46
2022-11-29T13:17:14.554Z,60.50
2022-11-29T13:19:41.221Z,62.15
2022-11-29T13:22:07.836Z,61.67
2022-11-29T13:24:38.376Z,61.94
2022-11-29T13:27:09.310Z,62.02
2022-11-29T13:29:35.915Z,62.14
2022-11-29T13:32:02.540Z,62.32
2022-11-29T13:34:29.203Z,62.14
2022-11-29T13:36:55.855Z,61.24
2022-11-29T13:39:22.500Z,61.72
2022-11-29T13:41:49.206Z,61.80
2022-11-29T13:44:15.830Z,60.96
2022-11-29T13:46:42.509Z,61.73
2022-11-29T13:49:09.207Z,60.97
2022-11-29T13:51:35.850Z,60.09
2022-11-29T13:54:02.503Z,59.14
2022-11-29T13:56:29.127Z,59.13
2022-11-29T13:58:55.806Z,59.16
2022-11-29T14:01:22.515Z,60.17
2022-11-29T14:03:49.164Z,59.79
2022-11-29T14:06:15.798Z,59.55
2022-11-29T14:09:10.734Z,59.60
2022-11-29T14:11:28.966Z,59.50
2022-11-29T14:13:55.607Z,59.26
2022-11-29T14:16:22.227Z,59.38
2022-11-29T14:18:48.950Z,59.09
2022-11-29T14:21:15.570Z,59.52
2022-11-29T14:23:42.234Z,60.51
2022-11-29T14:26:08.854Z,60.08
2022-11-29T14:28:35.504Z,59.82
2022-11-29T14:31:02.273Z,60.18
2022-11-29T14:33:29.056Z,59.95
2022-11-29T14:35:55.722Z,59.27
2022-11-29T14:38:26.332Z,59.01
2022-11-29T14:40:57.523Z,58.98
2022-11-29T14:43:24.177Z,59.18
2022-11-29T14:45:50.813Z,59.64
2022-11-29T14:48:17.483Z,59.48
2022-11-29T14:50:44.132Z,59.56
2022-11-29T14:53:10.815Z,59.68
2022-11-29T14:55:37.414Z,58.94
2022-11-29T14:58:04.095Z,58.37
2022-11-29T15:00:30.805Z,58.16
2022-11-29T15:02:57.469Z,58.06
2022-11-29T15:05:24.114Z,58.66
2022-11-29T15:07:50.805Z,58.43
2022-11-29T15:10:17.549Z,58.08
2022-11-29T15:12:44.215Z,57.55
2022-11-29T15:15:10.861Z,57.18
2022-11-29T15:17:37.563Z,57.40
2022-11-29T15:20:04.208Z,57.75
2022-11-29T15:22:30.846Z,57.74
2022-11-29T15:24:57.468Z,57.93
2022-11-29T15:27:24.111Z,57.82
2022-11-29T15:29:50.756Z,57.37
2022-11-29T15:32:17.378Z,57.34
2022-11-29T15:34:44.274Z,56.86
2022-11-29T15:37:11.156Z,57.22
2022-11-29T15:39:37.736Z,57.08
2022-11-29T15:42:04.384Z,56.72
2022-11-29T15:44:31.029Z,57.02
2022-11-29T15:46:57.708Z,57.41
2022-11-29T15:49:24.389Z,57.63
2022-11-29T15:51:50.985Z,57.55
2022-11-29T15:54:17.571Z,57.98
2022-11-29T15:56:44.251Z,57.55
2022-11-29T15:59:10.841Z,57.48
2022-11-29T16:01:37.579Z,57.01
2022-11-29T16:04:04.294Z,57.26
2022-11-29T16:06:30.942Z,57.65
2022-11-29T16:08:57.610Z,57.46
2022-11-29T16:11:24.219Z,57.60
2022-11-29T16:13:50.845Z,57.90
2022-11-29T16:16:17.469Z,57.44
2022-11-29T16:18:44.275Z,57.70
2022-11-29T16:21:10.860Z,57.18
2022-11-29T16:23:37.529Z,57.48
2022-11-29T16:26:04.166Z,57.28
2022-11-29T16:28:30.854Z,56.72
2022-11-29T16:30:57.489Z,57.27
2022-11-29T16:33:24.137Z,56.42
2022-11-29T16:35:50.761Z,56.93
2022-11-29T16:38:17.388Z,56.72
2022-11-29T16:40:43.994Z,56.42
2022-11-29T16:43:10.633Z,56.12
2022-11-29T16:45:37.369Z,57.12
2022-11-29T16:48:04.049Z,56.97
2022-11-29T16:50:30.687Z,56.53
2022-11-29T16:52:57.324Z,56.23
2022-11-29T16:55:24.009Z,56.03
2022-11-29T16:57:50.611Z,56.75
2022-11-29T17:00:17.220Z,57.38
2022-11-29T17:02:43.843Z,57.41
2022-11-29T17:05:10.472Z,57.29
2022-11-29T17:07:37.147Z,57.73
2022-11-29T17:10:03.817Z,57.51
2022-11-29T17:12:30.415Z,57.39
2022-11-29T17:14:57.066Z,57.44
2022-11-29T17:17:23.686Z,57.23
2022-11-29T17:19:50.360Z,57.20
2022-11-29T17:22:16.977Z,57.16
2022-11-29T17:24:47.697Z,56.78
2022-11-29T17:27:15.098Z,56.66
2022-11-29T17:29:41.745Z,56.99
2022-11-29T17:32:08.410Z,57.03
2022-11-29T17:34:35.384Z,56.61
2022-11-29T17:37:02.025Z,57.10
2022-11-29T17:39:28.677Z,56.90
2022-11-29T17:41:55.300Z,56.78
2022-11-29T17:44:21.903Z,56.25
2022-11-29T17:46:48.580Z,56.40
2022-11-29T17:49:15.223Z,56.34
2022-11-29T17:51:57.213Z,55.95
2022-11-29T17:54:23.841Z,56.05
2022-11-29T17:56:50.518Z,56.26
2022-11-29T17:59:17.182Z,56.41
2022-11-29T18:01:43.945Z,56.55
2022-11-29T18:04:10.694Z,56.56
2022-11-29T18:06:37.308Z,56.74
2022-11-29T18:09:03.926Z,57.01
2022-11-29T18:11:30.584Z,57.02
2022-11-29T18:13:57.197Z,56.59
2022-11-29T18:16:23.862Z,56.69
2022-11-29T18:18:50.628Z,56.67
2022-11-29T18:21:17.312Z,56.68
2022-11-29T18:23:43.919Z,56.78
2022-11-29T18:26:10.511Z,57.08
2022-11-29T18:28:37.189Z,57.07
2022-11-29T18:31:03.885Z,56.85
2022-11-29T18:33:30.592Z,56.81
2022-11-29T18:35:57.188Z,57.04
2022-11-29T18:38:23.851Z,57.23
2022-11-29T18:40:50.479Z,57.23
2022-11-29T18:43:17.108Z,57.36
2022-11-29T18:45:43.801Z,57.67
2022-11-29T18:48:10.649Z,57.52
2022-11-29T18:50:37.304Z,57.60
2022-11-29T18:53:03.990Z,57.54
2022-11-29T18:55:30.619Z,57.43
2022-11-29T18:57:57.280Z,57.71
2022-11-29T19:00:23.925Z,57.64
2022-11-29T19:02:50.642Z,57.58
2022-11-29T19:05:17.284Z,57.68
2022-11-29T19:07:43.947Z,58.01
2022-11-29T19:10:10.626Z,58.05
2022-11-29T19:12:37.266Z,58.25
2022-11-29T19:15:03.891Z,58.65
2022-11-29T19:17:30.563Z,58.56
2022-11-29T19:19:57.194Z,58.39
2022-11-29T19:22:23.853Z,58.40
2022-11-29T19:24:50.522Z,58.31
2022-11-29T19:27:17.161Z,58.17
2022-11-29T19:29:43.795Z,58.40
2022-11-29T19:32:10.435Z,58.19
2022-11-29T19:34:37.069Z,58.09
2022-11-29T19:37:03.683Z,58.31
2022-11-29T19:39:30.377Z,58.47
2022-11-29T19:41:57.075Z,58.33
2022-11-29T19:44:28.049Z,58.89
2022-11-29T19:46:56.641Z,58.79
2022-11-29T19:49:23.251Z,58.60
2022-11-29T19:51:49.890Z,58.67
2022-11-29T19:54:16.538Z,59.04
2022-11-29T19:56:43.189Z,59.34
2022-11-29T19:59:09.838Z,59.39
2022-11-29T20:01:40.838Z,59.43
2022-11-29T20:04:08.309Z,59.25
2022-11-29T20:06:34.940Z,59.31
2022-11-29T20:09:01.559Z,59.31
2022-11-29T20:11:28.194Z,59.37
2022-11-29T20:13:58.381Z,59.23
2022-11-29T20:16:25.034Z,59.16
2022-11-29T20:18:51.667Z,59.16
2022-11-29T20:21:18.339Z,59.35
2022-11-29T20:23:44.990Z,58.83
2022-11-29T20:26:11.674Z,58.86
2022-11-29T20:28:38.335Z,59.09
2022-11-29T20:31:05.611Z,59.12
2022-11-29T20:33:32.230Z,59.13
2022-11-29T20:35:58.848Z,59.11
2022-11-29T20:38:25.461Z,59.33
2022-11-29T20:40:52.724Z,59.17
2022-11-29T20:43:19.462Z,59.18
2022-11-29T20:45:46.105Z,59.18
2022-11-29T20:48:12.761Z,59.37
2022-11-29T20:50:39.461Z,59.23
2022-11-29T20:53:06.144Z,59.52
2022-11-29T20:55:32.811Z,59.30
2022-11-29T20:57:59.470Z,59.26
2022-11-29T21:00:26.085Z,59.14
2022-11-29T21:02:52.717Z,59.30
2022-11-29T21:05:19.344Z,58.87
2022-11-29T21:07:46.046Z,59.06
2022-11-29T21:10:12.762Z,59.52
2022-11-29T21:12:39.441Z,59.35
2022-11-29T21:15:06.068Z,59.41
2022-11-29T21:17:33.927Z,59.48
2022-11-29T21:20:00.733Z,59.45
2022-11-29T21:22:27.371Z,59.20
2022-11-29T21:24:54.006Z,59.31
2022-11-29T21:27:20.593Z,58.93
2022-11-29T21:29:47.228Z,58.98
2022-11-29T21:32:19.045Z,59.32
2022-11-29T21:34:46.093Z,59.86
2022-11-29T21:37:12.903Z,59.75
2022-11-29T21:39:39.559Z,59.29
2022-11-29T21:42:06.208Z,60.09
2022-11-29T21:44:32.863Z,60.22
2022-11-29T21:46:59.480Z,60.45
2022-11-29T21:49:26.095Z,60.18
2022-11-29T21:51:52.780Z,60.00
2022-11-29T21:54:19.455Z,59.96
2022-11-29T21:56:46.093Z,60.05
2022-11-29T21:59:12.692Z,60.15
2022-11-29T22:01:39.373Z,60.86
2022-11-29T22:04:06.161Z,60.56
2022-11-29T22:06:32.785Z,60.16
2022-11-29T22:08:59.372Z,60.65
2022-11-29T22:11:25.956Z,61.18
2022-11-29T22:13:52.568Z,60.99
2022-11-29T22:16:19.221Z,60.79
2022-11-29T22:18:46.038Z,60.56
2022-11-29T22:21:12.653Z,60.19
2022-11-29T22:23:39.291Z,60.60
2022-11-29T22:26:05.941Z,60.32
2022-11-29T22:28:32.571Z,60.33
2022-11-29T22:30:59.303Z,60.01
2022-11-29T22:33:25.919Z,60.07
2022-11-29T22:35:52.559Z,60.13
2022-11-29T22:38:19.242Z,60.13
2022-11-29T22:40:45.875Z,59.99
2022-11-29T22:43:12.515Z,60.06
2022-11-29T22:45:39.208Z,59.89
2022-11-29T22:48:05.805Z,60.05
2022-11-29T22:50:32.463Z,60.18
2022-11-29T22:52:59.068Z,60.03
2022-11-29T22:55:25.733Z,59.90
2022-11-29T22:57:52.430Z,60.06
2022-11-29T23:00:19.026Z,60.11
2022-11-29T23:02:45.637Z,60.44
2022-11-29T23:05:12.244Z,60.29
2022-11-29T23:07:38.885Z,60.17
2022-11-29T23:10:05.524Z,60.03
2022-11-29T23:12:32.112Z,60.10
2022-11-29T23:14:58.969Z,60.11
2022-11-29T23:17:25.748Z,59.97
2022-11-29T23:19:52.485Z,59.99
2022-11-29T23:22:19.234Z,60.11
2022-11-29T23:24:46.207Z,60.04
2022-11-29T23:27:12.978Z,60.57
2022-11-29T23:29:39.625Z,60.52
2022-11-29T23:32:06.267Z,60.56
2022-11-29T23:34:33.040Z,60.83
2022-11-29T23:37:02.828Z,61.47
2022-11-29T23:39:29.453Z,61.39
2022-11-29T23:41:56.083Z,61.39
2022-11-29T23:44:22.784Z,61.05
2022-11-29T23:46:49.412Z,61.19
2022-11-29T23:49:16.073Z,60.95
2022-11-29T23:51:42.731Z,60.76
2022-11-29T23:54:09.412Z,60.70
2022-11-29T23:56:36.039Z,60.70
2022-11-29T23:59:02.729Z,60.73
